createdAt,value
2022-12-01T00:01:46.123Z,67.10
2022-12-01T00:04:12.980Z,67.10
2022-12-01T00:06:39.744Z,67.20
2022-12-01T00:09:24.971Z,67.20
2022-12-01T00:11:51.716Z,67.30
2022-12-01T00:14:18.468Z,67.20
2022-12-01T00:16:45.293Z,67.20
2022-12-01T00:19:12.108Z,67.20
2022-12-01T00:21:38.882Z,67.20
2022-12-01T00:24:05.896Z,67.10
2022-12-01T00:26:32.674Z,66.90
2022-12-01T00:28:59.480Z,67.20
2022-12-01T00:31:26.623Z,67.20
2022-12-01T00:33:53.506Z,67.10
2022-12-01T00:36:20.317Z,66.90
2022-12-01T00:38:47.129Z,66.90
2022-12-01T00:41:13.888Z,66.90
2022-12-01T00:43:40.804Z,66.90
2022-12-01T00:46:07.564Z,67.10
2022-12-01T00:48:34.343Z,66.90
2022-12-01T00:51:01.035Z,67.00
2022-12-01T00:53:27.753Z,67.00
2022-12-01T00:55:54.689Z,66.70
2022-12-01T00:58:22.054Z,66.90
2022-12-01T01:00:48.999Z,67.00
2022-12-01T01:03:15.991Z,67.00
2022-12-01T01:05:42.955Z,66.80
2022-12-01T01:08:10.657Z,66.90
2022-12-01T01:10:41.819Z,67.10
2022-12-01T01:13:08.590Z,67.20
2022-12-01T01:15:35.381Z,66.90
2022-12-01T01:18:02.212Z,67.20
2022-12-01T01:20:29.013Z,67.40
2022-12-01T01:22:55.729Z,67.40
2022-12-01T01:25:22.921Z,67.30
2022-12-01T01:27:49.911Z,68.10
2022-12-01T01:30:16.930Z,67.30
2022-12-01T01:32:43.779Z,67.30
2022-12-01T01:35:10.488Z,67.40
2022-12-01T01:37:37.170Z,67.40
2022-12-01T01:40:04.546Z,67.60
2022-12-01T01:42:31.302Z,67.60
2022-12-01T01:44:58.776Z,67.50
2022-12-01T01:47:32.653Z,67.60
2022-12-01T01:50:05.216Z,67.60
2022-12-01T01:52:43.005Z,67.50
2022-12-01T01:55:09.738Z,67.40
2022-12-01T01:57:36.527Z,67.40
2022-12-01T02:00:11.335Z,67.40
2022-12-01T02:02:44.965Z,67.70
2022-12-01T02:05:21.179Z,67.70
2022-12-01T02:07:48.086Z,67.50
2022-12-01T02:10:15.046Z,67.60
2022-12-01T02:12:54.676Z,67.60
2022-12-01T02:15:42.516Z,67.40
2022-12-01T02:18:38.262Z,67.50
2022-12-01T02:21:40.185Z,67.40
2022-12-01T02:24:37.364Z,67.50
2022-12-01T02:27:06.998Z,67.70
2022-12-01T02:29:42.201Z,67.70
2022-12-01T02:32:17.246Z,67.70
2022-12-01T02:34:50.001Z,67.70
2022-12-01T02:37:19.416Z,67.80
2022-12-01T02:39:55.648Z,67.70
2022-12-01T02:43:08.611Z,67.50
2022-12-01T02:45:55.633Z,67.60
2022-12-01T02:48:30.638Z,67.40
2022-12-01T02:50:59.691Z,67.50
2022-12-01T02:53:26.428Z,67.50
2022-12-01T02:55:54.472Z,67.50
2022-12-01T02:58:21.294Z,67.50
2022-12-01T03:01:27.099Z,67.60
2022-12-01T03:04:00.879Z,67.80
2022-12-01T03:06:55.458Z,67.90
2022-12-01T03:09:49.943Z,67.80
2022-12-01T03:12:41.450Z,67.60
2022-12-01T03:15:08.235Z,67.80
2022-12-01T03:18:00.929Z,67.80
2022-12-01T03:20:58.393Z,67.80
2022-12-01T03:23:26.716Z,67.80
2022-12-01T03:25:53.739Z,67.70
2022-12-01T03:28:22.937Z,67.70
2022-12-01T03:30:52.135Z,67.50
2022-12-01T03:33:25.228Z,67.70
2022-12-01T03:36:10.259Z,67.50
2022-12-01T03:38:36.981Z,67.50
2022-12-01T03:41:10.459Z,68.40
2022-12-01T03:43:39.367Z,68.00
2022-12-01T03:46:38.110Z,68.30
2022-12-01T03:49:05.766Z,68.60
2022-12-01T03:51:44.847Z,68.60
2022-12-01T03:54:33.005Z,68.70
2022-12-01T03:57:05.536Z,68.90
2022-12-01T03:59:32.265Z,69.20
2022-12-01T04:01:59.108Z,69.40
2022-12-01T04:04:25.879Z,69.40
2022-12-01T04:06:52.540Z,69.50
2022-12-01T04:09:19.285Z,69.70
2022-12-01T04:12:04.644Z,69.50
2022-12-01T04:14:31.377Z,69.60
2022-12-01T04:16:58.133Z,69.60
2022-12-01T04:19:24.947Z,69.60
2022-12-01T04:21:51.688Z,69.60
2022-12-01T04:24:18.605Z,69.90
2022-12-01T04:26:46.182Z,70.10
2022-12-01T04:29:13.039Z,70.40
2022-12-01T04:31:39.909Z,70.40
2022-12-01T04:34:06.813Z,70.50
2022-12-01T04:36:34.376Z,70.50
2022-12-01T04:39:01.628Z,70.70
2022-12-01T04:41:28.306Z,70.60
2022-12-01T04:43:55.384Z,70.80
2022-12-01T04:46:22.568Z,71.00
2022-12-01T04:48:49.303Z,71.10
2022-12-01T04:51:16.076Z,71.10
2022-12-01T04:53:43.096Z,71.10
2022-12-01T04:56:09.969Z,71.10
2022-12-01T04:58:37.822Z,71.20
2022-12-01T05:01:08.295Z,71.30
2022-12-01T05:03:39.173Z,71.20
2022-12-01T05:06:07.805Z,71.30
2022-12-01T05:08:34.595Z,71.30
2022-12-01T05:11:01.504Z,71.40
2022-12-01T05:13:28.506Z,71.30
2022-12-01T05:16:03.600Z,71.60
2022-12-01T05:18:30.361Z,71.40
2022-12-01T05:20:57.102Z,71.60
2022-12-01T05:23:28.196Z,71.50
2022-12-01T05:25:54.993Z,71.60
2022-12-01T05:28:22.507Z,71.40
2022-12-01T05:30:49.695Z,72.30
2022-12-01T05:33:16.625Z,71.70
2022-12-01T05:35:43.473Z,71.90
2022-12-01T05:38:10.218Z,71.90
2022-12-01T05:40:37.209Z,72.00
2022-12-01T05:43:04.052Z,72.80
2022-12-01T05:45:30.910Z,72.10
2022-12-01T05:47:58.226Z,72.00
2022-12-01T05:50:25.129Z,71.90
2022-12-01T05:52:51.909Z,71.60
2022-12-01T05:55:18.645Z,71.30
2022-12-01T05:57:45.442Z,71.30
2022-12-01T06:00:13.189Z,71.40
2022-12-01T06:02:42.993Z,71.60
2022-12-01T06:05:09.858Z,71.40
2022-12-01T06:07:36.718Z,71.50
2022-12-01T06:10:03.594Z,71.60
2022-12-01T06:12:30.336Z,71.60
2022-12-01T06:14:57.192Z,71.40
2022-12-01T06:17:23.935Z,71.30
2022-12-01T06:19:50.959Z,71.10
2022-12-01T06:22:17.984Z,71.40
2022-12-01T06:24:44.762Z,71.60
2022-12-01T06:27:11.502Z,72.00
2022-12-01T06:29:42.069Z,72.00
2022-12-01T06:32:09.353Z,72.10
2022-12-01T06:34:36.074Z,71.90
2022-12-01T06:37:02.794Z,71.80
2022-12-01T06:39:29.732Z,71.60
2022-12-01T06:41:56.402Z,71.30
2022-12-01T06:44:23.401Z,71.50
2022-12-01T06:46:52.969Z,71.20
2022-12-01T06:49:19.963Z,70.70
2022-12-01T06:51:46.762Z,71.90
2022-12-01T06:54:14.485Z,71.60
2022-12-01T06:56:43.086Z,71.70
2022-12-01T06:59:10.209Z,71.20
2022-12-01T07:01:37.215Z,70.90
2022-12-01T07:04:03.968Z,71.00
2022-12-01T07:06:31.211Z,71.00
2022-12-01T07:08:58.124Z,71.10
2022-12-01T07:11:24.802Z,71.10
2022-12-01T07:13:55.133Z,71.10
2022-12-01T07:16:22.290Z,71.70
2022-12-01T07:18:49.017Z,71.80
2022-12-01T07:21:15.918Z,71.40
2022-12-01T07:23:42.904Z,71.40
2022-12-01T07:26:17.266Z,71.30
2022-12-01T07:28:44.280Z,71.10
2022-12-01T07:31:18.516Z,71.20
2022-12-01T07:33:45.482Z,71.20
2022-12-01T07:36:12.693Z,71.10
2022-12-01T07:38:39.556Z,71.20
2022-12-01T07:41:14.028Z,71.30
2022-12-01T07:43:40.891Z,71.20
2022-12-01T07:46:20.313Z,71.10
2022-12-01T07:48:50.566Z,71.10
2022-12-01T07:51:17.393Z,71.00
2022-12-01T07:53:45.224Z,71.10
2022-12-01T07:56:12.059Z,70.80
2022-12-01T07:58:38.832Z,70.90
2022-12-01T08:01:07.160Z,71.00
2022-12-01T08:03:34.080Z,70.90
2022-12-01T08:06:01.102Z,71.00
2022-12-01T08:08:27.937Z,71.30
2022-12-01T08:10:54.660Z,71.40
2022-12-01T08:13:23.062Z,71.30
2022-12-01T08:15:49.897Z,71.20
2022-12-01T08:18:16.630Z,71.00
2022-12-01T08:20:43.269Z,71.90
2022-12-01T08:23:10.028Z,71.00
2022-12-01T08:25:36.842Z,71.10
2022-12-01T08:28:03.662Z,71.20
2022-12-01T08:30:30.423Z,71.10
2022-12-01T08:32:57.574Z,71.30
2022-12-01T08:35:24.978Z,71.30
2022-12-01T08:37:52.954Z,71.40
2022-12-01T08:40:20.097Z,71.30
2022-12-01T08:42:46.832Z,71.30
2022-12-01T08:45:13.682Z,71.50
2022-12-01T08:47:40.422Z,71.30
2022-12-01T08:50:07.746Z,72.20
2022-12-01T08:52:34.747Z,71.40
2022-12-01T08:55:01.540Z,71.40
2022-12-01T08:57:31.477Z,71.30
2022-12-01T08:59:58.181Z,72.20
2022-12-01T09:02:25.131Z,71.40
2022-12-01T09:04:51.985Z,71.40
2022-12-01T09:07:25.896Z,71.30
2022-12-01T09:09:53.253Z,71.20
2022-12-01T09:12:20.061Z,71.30
2022-12-01T09:14:49.846Z,71.50
2022-12-01T09:17:17.072Z,71.60
2022-12-01T09:19:43.996Z,71.50
2022-12-01T09:22:11.223Z,71.50
2022-12-01T09:24:38.078Z,71.40
2022-12-01T09:27:04.969Z,71.20
2022-12-01T09:29:32.199Z,71.40
2022-12-01T09:31:59.498Z,71.30
2022-12-01T09:34:26.436Z,71.30
2022-12-01T09:36:55.616Z,71.40
2022-12-01T09:39:22.427Z,71.40
2022-12-01T09:42:32.385Z,71.30
2022-12-01T09:45:02.836Z,71.20
2022-12-01T09:47:34.338Z,71.10
2022-12-01T09:50:24.063Z,70.70
2022-12-01T09:53:00.924Z,70.80
2022-12-01T09:55:27.644Z,70.60
2022-12-01T09:57:55.672Z,70.80
2022-12-01T10:00:24.519Z,71.10
2022-12-01T10:03:06.744Z,71.30
2022-12-01T10:06:25.331Z,70.90
2022-12-01T10:08:41.164Z,71.20
2022-12-01T10:11:39.004Z,70.80
2022-12-01T10:14:06.514Z,71.00
2022-12-01T10:16:42.739Z,70.60
2022-12-01T10:19:21.907Z,70.90
2022-12-01T10:22:24.009Z,70.80
2022-12-01T10:25:07.465Z,70.70
2022-12-01T10:28:01.900Z,70.80
2022-12-01T10:30:28.739Z,70.80
2022-12-01T10:33:16.230Z,70.60
2022-12-01T10:35:43.062Z,70.70
2022-12-01T10:38:15.232Z,71.00
2022-12-01T10:40:41.940Z,70.70
2022-12-01T10:43:09.590Z,70.80
2022-12-01T10:45:41.376Z,70.60
2022-12-01T10:48:15.780Z,70.60
2022-12-01T10:50:44.163Z,70.50
2022-12-01T10:53:23.179Z,70.20
2022-12-01T10:55:50.906Z,70.50
2022-12-01T10:58:18.734Z,69.80
2022-12-01T11:01:02.013Z,69.90
2022-12-01T11:03:31.720Z,70.00
2022-12-01T11:06:00.103Z,69.80
2022-12-01T11:08:46.199Z,69.80
2022-12-01T11:11:39.887Z,69.40
2022-12-01T11:14:17.007Z,69.10
2022-12-01T11:16:48.214Z,69.70
2022-12-01T11:19:25.137Z,69.50
2022-12-01T11:21:58.304Z,69.00
2022-12-01T11:24:42.222Z,69.20
2022-12-01T11:27:29.500Z,69.10
2022-12-01T11:30:02.824Z,68.60
2022-12-01T11:32:30.916Z,68.70
2022-12-01T11:35:14.972Z,68.40
2022-12-01T11:38:13.289Z,68.60
2022-12-01T11:40:53.943Z,68.80
2022-12-01T11:43:26.551Z,68.90
2022-12-01T11:45:53.713Z,68.70
2022-12-01T11:48:31.415Z,68.80
2022-12-01T11:51:05.363Z,68.80
2022-12-01T11:53:37.154Z,68.20
2022-12-01T11:56:23.221Z,68.10
2022-12-01T11:58:51.521Z,68.00
2022-12-01T12:01:52.329Z,68.00
2022-12-01T12:04:47.964Z,68.20
2022-12-01T12:07:43.464Z,67.90
2022-12-01T12:10:12.959Z,67.60
2022-12-01T12:12:52.770Z,67.30
2022-12-01T12:15:31.545Z,67.50
2022-12-01T12:18:32.323Z,67.60
2022-12-01T12:21:30.195Z,67.50
2022-12-01T12:24:10.351Z,67.20
2022-12-01T12:27:10.005Z,67.50
2022-12-01T12:29:51.448Z,67.60
2022-12-01T12:32:59.601Z,67.60
2022-12-01T12:35:36.020Z,67.60
2022-12-01T12:38:09.187Z,67.60
2022-12-01T12:40:45.432Z,67.60
2022-12-01T12:43:26.941Z,67.50
2022-12-01T12:46:11.342Z,67.70
2022-12-01T12:49:18.672Z,67.50
2022-12-01T12:51:51.908Z,67.40
2022-12-01T12:54:21.167Z,68.10
2022-12-01T12:56:49.532Z,67.60
2022-12-01T12:59:21.836Z,67.10
2022-12-01T13:01:54.320Z,67.50
2022-12-01T13:04:27.834Z,67.10
2022-12-01T13:07:12.428Z,67.10
2022-12-01T13:09:41.990Z,67.20
2022-12-01T13:12:31.760Z,66.90
2022-12-01T13:15:03.857Z,67.00
2022-12-01T13:17:36.274Z,66.30
2022-12-01T13:20:04.869Z,66.70
2022-12-01T13:22:34.515Z,66.30
2022-12-01T13:25:02.180Z,65.90
2022-12-01T13:27:33.072Z,66.00
2022-12-01T13:29:59.868Z,66.20
2022-12-01T13:32:35.310Z,65.90
2022-12-01T13:35:06.128Z,65.90
2022-12-01T13:37:34.315Z,65.80
2022-12-01T13:40:25.221Z,66.00
2022-12-01T13:43:07.039Z,65.20
2022-12-01T13:45:37.446Z,65.50
2022-12-01T13:48:05.409Z,65.40
2022-12-01T13:50:44.179Z,65.30
2022-12-01T13:53:17.687Z,65.40
2022-12-01T13:56:01.079Z,65.60
2022-12-01T13:58:33.840Z,65.50
2022-12-01T14:01:23.154Z,65.60
2022-12-01T14:03:57.041Z,65.60
2022-12-01T14:06:36.052Z,65.80
2022-12-01T14:09:08.049Z,65.80
2022-12-01T14:11:34.833Z,65.80
2022-12-01T14:14:13.190Z,65.80
2022-12-01T14:16:45.593Z,65.80
2022-12-01T14:19:40.923Z,65.80
2022-12-01T14:22:07.900Z,65.80
2022-12-01T14:24:35.500Z,65.80
2022-12-01T14:27:02.974Z,65.70
2022-12-01T14:29:31.623Z,65.80
2022-12-01T14:32:01.400Z,65.70
2022-12-01T14:34:30.372Z,65.60
2022-12-01T14:37:24.932Z,65.80
2022-12-01T14:40:03.338Z,66.00
2022-12-01T14:43:00.144Z,66.00
2022-12-01T14:45:41.205Z,66.70
2022-12-01T14:48:16.821Z,65.90
2022-12-01T14:50:51.986Z,66.00
2022-12-01T14:53:22.272Z,66.00
2022-12-01T14:55:58.950Z,65.90
2022-12-01T14:58:30.079Z,66.10
2022-12-01T15:00:58.269Z,66.10
2022-12-01T15:03:30.480Z,66.10
2022-12-01T15:05:58.684Z,66.90
2022-12-01T15:08:53.112Z,66.30
2022-12-01T15:11:25.614Z,66.20
2022-12-01T15:13:53.890Z,66.40
2022-12-01T15:16:25.279Z,66.40
2022-12-01T15:18:52.259Z,66.70
2022-12-01T15:21:19.511Z,66.80
2022-12-01T15:24:00.561Z,66.60
2022-12-01T15:26:33.646Z,66.80
2022-12-01T15:29:05.184Z,67.60
2022-12-01T15:31:31.981Z,66.80
2022-12-01T15:33:58.759Z,67.10
2022-12-01T15:36:25.476Z,67.00
2022-12-01T15:38:52.332Z,67.90
2022-12-01T15:41:29.481Z,67.10
2022-12-01T15:44:05.420Z,67.20
2022-12-01T15:46:34.261Z,67.30
2022-12-01T15:49:32.286Z,67.40
2022-12-01T15:52:07.188Z,67.40
2022-12-01T15:54:33.978Z,67.40
2022-12-01T15:57:00.785Z,67.40
2022-12-01T15:59:35.727Z,67.40
2022-12-01T16:02:32.630Z,67.30
2022-12-01T16:05:15.844Z,67.40
2022-12-01T16:10:33.879Z,67.60
2022-12-01T16:13:37.770Z,67.50
2022-12-01T16:16:45.846Z,67.70
2022-12-01T16:19:12.617Z,67.70
2022-12-01T16:21:50.385Z,67.70
2022-12-01T16:24:17.830Z,67.80
2022-12-01T16:27:11.164Z,67.90
2022-12-01T16:29:51.340Z,68.00
2022-12-01T16:32:21.848Z,68.10
2022-12-01T16:34:50.338Z,68.20
2022-12-01T16:37:17.020Z,68.10
2022-12-01T16:39:43.833Z,68.30
2022-12-01T16:42:18.493Z,68.40
2022-12-01T16:44:46.605Z,68.60
2022-12-01T16:47:25.294Z,68.60
2022-12-01T16:49:52.317Z,68.70
2022-12-01T16:55:15.822Z,68.60
2022-12-01T16:57:42.922Z,68.60
2022-12-01T17:00:11.052Z,68.70
2022-12-01T17:02:37.841Z,68.60
2022-12-01T17:05:04.876Z,69.60
2022-12-01T17:07:31.600Z,68.80
2022-12-01T17:09:58.468Z,69.00
2022-12-01T17:12:26.804Z,69.10
2022-12-01T17:14:53.628Z,69.10
2022-12-01T17:17:20.384Z,69.30
2022-12-01T17:19:47.094Z,69.40
2022-12-01T17:22:13.832Z,69.60
2022-12-01T17:24:40.577Z,69.60
2022-12-01T17:27:07.330Z,69.70
2022-12-01T17:29:34.136Z,69.60
2022-12-01T17:32:00.862Z,69.50
2022-12-01T17:34:27.553Z,69.50
2022-12-01T17:36:54.244Z,69.60
2022-12-01T17:39:21.088Z,69.50
2022-12-01T17:41:47.823Z,69.30
2022-12-01T17:44:14.519Z,69.50
2022-12-01T17:46:41.993Z,69.40
2022-12-01T17:49:10.613Z,69.30
2022-12-01T17:51:37.394Z,69.40
2022-12-01T17:54:04.522Z,69.30
2022-12-01T17:56:31.530Z,69.50
2022-12-01T17:58:58.346Z,69.10
2022-12-01T18:01:29.986Z,69.30
2022-12-01T18:03:57.502Z,69.30
2022-12-01T18:06:25.547Z,69.20
2022-12-01T18:08:53.194Z,69.20
2022-12-01T18:11:20.433Z,69.10
2022-12-01T18:13:49.107Z,69.10
2022-12-01T18:16:25.488Z,69.10
2022-12-01T18:18:52.614Z,69.40
2022-12-01T18:21:20.402Z,69.60
2022-12-01T18:23:54.834Z,69.40
2022-12-01T18:26:22.201Z,69.40
2022-12-01T18:28:54.752Z,69.50
2022-12-01T18:31:21.630Z,69.30
2022-12-01T18:33:48.675Z,69.30
2022-12-01T18:36:17.396Z,69.20
2022-12-01T18:38:44.150Z,69.30
2022-12-01T18:41:10.933Z,69.00
2022-12-01T18:43:37.667Z,69.30
2022-12-01T18:46:05.540Z,69.20
2022-12-01T18:48:32.795Z,69.20
2022-12-01T18:51:04.095Z,69.10
2022-12-01T18:53:30.950Z,69.20
2022-12-01T18:56:00.683Z,69.30
2022-12-01T18:58:27.345Z,69.20
2022-12-01T19:00:54.117Z,69.40
2022-12-01T19:03:21.080Z,69.10
2022-12-01T19:05:47.920Z,69.00
2022-12-01T19:08:14.657Z,69.00
2022-12-01T19:10:41.438Z,68.80
2022-12-01T19:13:08.167Z,68.70
2022-12-01T19:15:36.721Z,68.70
2022-12-01T19:18:03.551Z,68.60
2022-12-01T19:20:30.244Z,68.60
2022-12-01T19:22:57.085Z,68.50
2022-12-01T19:25:23.794Z,68.50
2022-12-01T19:27:51.223Z,68.50
2022-12-01T19:30:18.113Z,68.50
2022-12-01T19:32:45.086Z,68.30
2022-12-01T19:35:11.953Z,68.20
2022-12-01T19:37:38.689Z,68.10
2022-12-01T19:40:05.924Z,68.10
2022-12-01T19:42:32.643Z,68.10
2022-12-01T19:44:59.371Z,68.00
2022-12-01T19:47:26.074Z,68.10
2022-12-01T19:49:52.835Z,68.20
2022-12-01T19:52:19.572Z,68.20
2022-12-01T19:54:46.294Z,68.00
2022-12-01T19:57:12.976Z,68.00
2022-12-01T19:59:39.701Z,68.00
2022-12-01T20:02:06.650Z,67.70
2022-12-01T20:04:33.581Z,67.80
2022-12-01T20:07:00.238Z,67.90
2022-12-01T20:09:27.351Z,67.70
2022-12-01T20:11:54.266Z,67.60
2022-12-01T20:14:21.034Z,67.60
2022-12-01T20:16:47.811Z,67.60
2022-12-01T20:19:14.717Z,67.80
2022-12-01T20:21:44.303Z,67.90
2022-12-01T20:24:15.609Z,67.60
2022-12-01T20:26:44.876Z,67.60
2022-12-01T20:29:15.320Z,67.70
2022-12-01T20:31:42.339Z,67.80
2022-12-01T20:34:11.309Z,68.00
2022-12-01T20:36:38.558Z,67.60
2022-12-01T20:39:05.446Z,67.60
2022-12-01T20:41:32.210Z,67.70
2022-12-01T20:44:03.774Z,67.60
2022-12-01T20:46:33.602Z,67.80
2022-12-01T20:49:00.354Z,67.90
2022-12-01T20:51:28.302Z,67.70
2022-12-01T20:54:26.352Z,67.90
2022-12-01T20:56:41.619Z,67.70
2022-12-01T20:59:08.330Z,67.70
2022-12-01T21:01:35.509Z,67.70
2022-12-01T21:04:02.382Z,67.70
2022-12-01T21:06:29.221Z,67.70
2022-12-01T21:08:55.968Z,67.80
2022-12-01T21:11:48.509Z,67.70
2022-12-01T21:14:28.025Z,67.90
2022-12-01T21:16:56.859Z,67.80
2022-12-01T21:19:29.139Z,67.70
2022-12-01T21:21:55.946Z,67.70
2022-12-01T21:24:28.505Z,67.80
2022-12-01T21:27:15.216Z,67.70
2022-12-01T21:29:45.173Z,67.70
2022-12-01T21:32:18.354Z,67.90
2022-12-01T21:34:46.083Z,67.90
2022-12-01T21:37:21.173Z,68.00
2022-12-01T21:39:51.548Z,67.90
2022-12-01T21:42:22.740Z,67.90
2022-12-01T21:44:49.892Z,68.00
2022-12-01T21:47:19.076Z,67.90
2022-12-01T21:49:45.871Z,68.00
2022-12-01T21:52:17.799Z,67.90
2022-12-01T21:54:44.602Z,68.00
2022-12-01T21:57:24.277Z,68.00
2022-12-01T21:59:51.919Z,68.00
2022-12-01T22:03:08.264Z,67.90
2022-12-01T22:05:37.860Z,67.90
2022-12-01T22:08:26.972Z,67.70
2022-12-01T22:11:08.451Z,67.80
2022-12-01T22:13:42.148Z,67.90
2022-12-01T22:16:33.916Z,67.90
2022-12-01T22:19:16.387Z,67.90
2022-12-01T22:21:46.876Z,67.80
2022-12-01T22:24:33.135Z,67.90
2022-12-01T22:27:05.889Z,68.00
2022-12-01T22:29:37.997Z,67.90
2022-12-01T22:32:42.392Z,68.00
2022-12-01T22:35:29.973Z,68.00
2022-12-01T22:38:06.325Z,68.00
2022-12-01T22:40:43.436Z,68.00
2022-12-01T22:43:16.268Z,68.20
2022-12-01T22:45:49.091Z,68.20
2022-12-01T22:48:27.397Z,68.10
2022-12-01T22:50:54.691Z,68.10
2022-12-01T22:53:30.964Z,68.20
2022-12-01T22:55:59.270Z,68.20
2022-12-01T22:58:32.473Z,68.30
2022-12-01T23:01:07.554Z,68.40
2022-12-01T23:03:34.326Z,68.30
2022-12-01T23:06:01.447Z,68.30
2022-12-01T23:08:28.296Z,68.40
2022-12-01T23:10:55.013Z,68.20
2022-12-01T23:13:23.631Z,68.40
2022-12-01T23:15:51.676Z,68.50
2022-12-01T23:18:22.491Z,68.40
2022-12-01T23:20:50.827Z,68.40
2022-12-01T23:23:19.429Z,68.20
2022-12-01T23:25:46.899Z,68.30
2022-12-01T23:28:13.695Z,68.40
2022-12-01T23:30:41.669Z,68.60
2022-12-01T23:33:16.601Z,68.50
2022-12-01T23:36:05.170Z,68.30
2022-12-01T23:38:36.027Z,68.30
2022-12-01T23:41:05.565Z,68.50
2022-12-01T23:43:34.131Z,68.40
2022-12-01T23:46:20.742Z,68.40
2022-12-01T23:48:49.746Z,68.50
2022-12-01T23:51:32.460Z,68.50
2022-12-01T23:54:01.416Z,68.50
2022-12-01T23:56:28.670Z,68.40
2022-12-01T23:58:55.563Z,68.40
